sensor_id;sensor_type;location;lat;lon;timestamp;temperature;humidity
37408;DHT22;24866;50.248;8.252;2023-02-21T00:00:54;3.40;99.90
37408;DHT22;24866;50.248;8.252;2023-02-21T00:03:41;3.10;99.90
37408;DHT22;24866;50.248;8.252;2023-02-21T00:06:28;3.30;99.90
37408;DHT22;24866;50.248;8.252;2023-02-21T00:09:17;3.70;99.90
37408;DHT22;24866;50.248;8.252;2023-02-21T00:12:05;4.10;99.90
37408;DHT22;24866;50.248;8.252;2023-02-21T00:14:53;4.40;99.90
37408;DHT22;24866;50.248;8.252;2023-02-21T00:17:40;4.30;99.90
37408;DHT22;24866;50.248;8.252;2023-02-21T00:20:28;3.90;99.90
37408;DHT22;24866;50.248;8.252;2023-02-21T00:23:15;3.80;99.90
37408;DHT22;24866;50.248;8.252;2023-02-21T00:26:04;3.30;99.90
37408;DHT22;24866;50.248;8.252;2023-02-21T00:28:51;3.30;99.90
37408;DHT22;24866;50.248;8.252;2023-02-21T00:31:39;3.80;99.90
37408;DHT22;24866;50.248;8.252;2023-02-21T00:34:26;3.90;99.90
37408;DHT22;24866;50.248;8.252;2023-02-21T00:37:13;4.10;99.90
37408;DHT22;24866;50.248;8.252;2023-02-21T00:40:01;4.00;99.90
37408;DHT22;24866;50.248;8.252;2023-02-21T00:42:49;3.80;99.90
37408;DHT22;24866;50.248;8.252;2023-02-21T00:45:37;3.80;99.90
37408;DHT22;24866;50.248;8.252;2023-02-21T00:48:24;3.80;99.90
37408;DHT22;24866;50.248;8.252;2023-02-21T00:51:11;3.70;99.90
37408;DHT22;24866;50.248;8.252;2023-02-21T00:53:59;3.60;99.90
37408;DHT22;24866;50.248;8.252;2023-02-21T00:56:46;3.40;99.90
37408;DHT22;24866;50.248;8.252;2023-02-21T00:59:35;3.80;99.90
37408;DHT22;24866;50.248;8.252;2023-02-21T01:02:22;3.80;99.90
37408;DHT22;24866;50.248;8.252;2023-02-21T01:05:09;3.40;99.90
37408;DHT22;24866;50.248;8.252;2023-02-21T01:07:56;3.40;99.90
37408;DHT22;24866;50.248;8.252;2023-02-21T01:10:44;3.70;99.90
37408;DHT22;24866;50.248;8.252;2023-02-21T01:13:31;3.50;99.90
37408;DHT22;24866;50.248;8.252;2023-02-21T01:16:20;3.60;99.90
37408;DHT22;24866;50.248;8.252;2023-02-21T01:19:07;3.80;99.90
37408;DHT22;24866;50.248;8.252;2023-02-21T01:21:54;3.60;99.90
37408;DHT22;24866;50.248;8.252;2023-02-21T01:24:42;3.70;99.90
37408;DHT22;24866;50.248;8.252;2023-02-21T01:27:29;3.60;99.90
37408;DHT22;24866;50.248;8.252;2023-02-21T01:30:16;3.40;99.90
37408;DHT22;24866;50.248;8.252;2023-02-21T01:33:05;3.20;99.90
37408;DHT22;24866;50.248;8.252;2023-02-21T01:35:52;3.20;99.90
37408;DHT22;24866;50.248;8.252;2023-02-21T01:38:40;3.10;99.90
37408;DHT22;24866;50.248;8.252;2023-02-21T01:41:27;3.10;99.90
37408;DHT22;24866;50.248;8.252;2023-02-21T01:44:32;3.40;99.90
37408;DHT22;24866;50.248;8.252;2023-02-21T01:47:20;3.50;99.90
37408;DHT22;24866;50.248;8.252;2023-02-21T01:50:13;3.60;99.90
37408;DHT22;24866;50.248;8.252;2023-02-21T01:53:04;3.40;99.90
37408;DHT22;24866;50.248;8.252;2023-02-21T01:55:54;3.60;99.90
37408;DHT22;24866;50.248;8.252;2023-02-21T01:58:42;3.30;99.90
37408;DHT22;24866;50.248;8.252;2023-02-21T02:01:35;3.30;99.90
37408;DHT22;24866;50.248;8.252;2023-02-21T02:04:25;3.30;99.90
37408;DHT22;24866;50.248;8.252;2023-02-21T02:07:13;3.10;99.90
37408;DHT22;24866;50.248;8.252;2023-02-21T02:10:01;3.30;99.90
37408;DHT22;24866;50.248;8.252;2023-02-21T02:13:10;3.20;99.90
37408;DHT22;24866;50.248;8.252;2023-02-21T02:15:48;3.40;99.90
37408;DHT22;24866;50.248;8.252;2023-02-21T02:18:51;3.40;99.90
37408;DHT22;24866;50.248;8.252;2023-02-21T02:24:57;3.60;99.90
37408;DHT22;24866;50.248;8.252;2023-02-21T02:30:46;3.70;99.90
37408;DHT22;24866;50.248;8.252;2023-02-21T02:33:50;3.60;99.90
37408;DHT22;24866;50.248;8.252;2023-02-21T02:36:27;3.80;99.90
37408;DHT22;24866;50.248;8.252;2023-02-21T02:39:08;3.80;99.90
37408;DHT22;24866;50.248;8.252;2023-02-21T02:41:46;3.90;99.90
37408;DHT22;24866;50.248;8.252;2023-02-21T02:44:20;3.70;99.90
37408;DHT22;24866;50.248;8.252;2023-02-21T02:46:53;3.30;99.90
37408;DHT22;24866;50.248;8.252;2023-02-21T02:49:27;3.20;99.90
37408;DHT22;24866;50.248;8.252;2023-02-21T02:52:04;3.50;99.90
37408;DHT22;24866;50.248;8.252;2023-02-21T02:54:34;3.70;99.90
37408;DHT22;24866;50.248;8.252;2023-02-21T02:57:07;3.80;99.90
37408;DHT22;24866;50.248;8.252;2023-02-21T02:59:43;3.80;99.90
37408;DHT22;24866;50.248;8.252;2023-02-21T03:02:33;4.00;99.90
37408;DHT22;24866;50.248;8.252;2023-02-21T03:05:27;4.00;99.90
37408;DHT22;24866;50.248;8.252;2023-02-21T03:08:07;4.20;99.90
37408;DHT22;24866;50.248;8.252;2023-02-21T03:10:44;4.20;99.90
37408;DHT22;24866;50.248;8.252;2023-02-21T03:13:17;4.20;99.90
37408;DHT22;24866;50.248;8.252;2023-02-21T03:15:53;4.30;99.90
37408;DHT22;24866;50.248;8.252;2023-02-21T03:18:28;4.20;99.90
37408;DHT22;24866;50.248;8.252;2023-02-21T03:21:01;3.90;99.90
37408;DHT22;24866;50.248;8.252;2023-02-21T03:23:34;3.80;99.90
37408;DHT22;24866;50.248;8.252;2023-02-21T03:26:08;3.90;99.90
37408;DHT22;24866;50.248;8.252;2023-02-21T03:28:41;3.90;99.90
37408;DHT22;24866;50.248;8.252;2023-02-21T03:31:14;4.10;99.90
37408;DHT22;24866;50.248;8.252;2023-02-21T03:33:45;4.20;99.90
37408;DHT22;24866;50.248;8.252;2023-02-21T03:36:15;4.20;99.90
37408;DHT22;24866;50.248;8.252;2023-02-21T03:38:48;4.20;99.90
37408;DHT22;24866;50.248;8.252;2023-02-21T03:41:18;4.30;99.90
37408;DHT22;24866;50.248;8.252;2023-02-21T03:43:48;4.20;99.90
37408;DHT22;24866;50.248;8.252;2023-02-21T03:46:18;4.20;99.90
37408;DHT22;24866;50.248;8.252;2023-02-21T03:48:48;4.10;99.90
37408;DHT22;24866;50.248;8.252;2023-02-21T03:51:18;4.20;99.90
37408;DHT22;24866;50.248;8.252;2023-02-21T03:53:50;4.40;99.90
37408;DHT22;24866;50.248;8.252;2023-02-21T03:56:20;4.50;99.90
37408;DHT22;24866;50.248;8.252;2023-02-21T03:58:50;4.60;99.90
37408;DHT22;24866;50.248;8.252;2023-02-21T04:01:21;4.70;99.90
37408;DHT22;24866;50.248;8.252;2023-02-21T04:03:50;4.70;99.90
37408;DHT22;24866;50.248;8.252;2023-02-21T04:06:20;4.60;99.90
37408;DHT22;24866;50.248;8.252;2023-02-21T04:08:52;4.60;99.90
37408;DHT22;24866;50.248;8.252;2023-02-21T04:11:22;4.60;99.90
37408;DHT22;24866;50.248;8.252;2023-02-21T04:13:52;4.60;99.90
37408;DHT22;24866;50.248;8.252;2023-02-21T04:16:21;4.60;99.90
37408;DHT22;24866;50.248;8.252;2023-02-21T04:18:51;4.70;99.90
37408;DHT22;24866;50.248;8.252;2023-02-21T04:21:22;4.70;99.90
37408;DHT22;24866;50.248;8.252;2023-02-21T04:23:53;4.80;99.90
37408;DHT22;24866;50.248;8.252;2023-02-21T04:26:23;4.80;99.90
37408;DHT22;24866;50.248;8.252;2023-02-21T04:28:53;4.60;99.90
37408;DHT22;24866;50.248;8.252;2023-02-21T04:31:23;4.60;99.90
37408;DHT22;24866;50.248;8.252;2023-02-21T04:33:53;4.60;99.90
37408;DHT22;24866;50.248;8.252;2023-02-21T04:36:23;4.80;99.90
37408;DHT22;24866;50.248;8.252;2023-02-21T04:38:55;4.80;99.90
37408;DHT22;24866;50.248;8.252;2023-02-21T04:41:25;4.90;99.90
37408;DHT22;24866;50.248;8.252;2023-02-21T04:43:55;4.80;99.90
37408;DHT22;24866;50.248;8.252;2023-02-21T04:46:25;4.80;99.90
37408;DHT22;24866;50.248;8.252;2023-02-21T04:48:55;4.90;99.90
37408;DHT22;24866;50.248;8.252;2023-02-21T04:51:25;5.00;99.90
37408;DHT22;24866;50.248;8.252;2023-02-21T04:53:57;4.90;99.90
37408;DHT22;24866;50.248;8.252;2023-02-21T04:56:27;5.00;99.90
37408;DHT22;24866;50.248;8.252;2023-02-21T04:58:57;4.90;99.90
37408;DHT22;24866;50.248;8.252;2023-02-21T05:01:29;4.80;99.90
37408;DHT22;24866;50.248;8.252;2023-02-21T05:04:00;4.90;99.90
37408;DHT22;24866;50.248;8.252;2023-02-21T05:06:31;4.80;99.90
37408;DHT22;24866;50.248;8.252;2023-02-21T05:09:03;4.80;99.90
37408;DHT22;24866;50.248;8.252;2023-02-21T05:11:33;4.80;99.90
37408;DHT22;24866;50.248;8.252;2023-02-21T05:14:03;4.90;99.90
37408;DHT22;24866;50.248;8.252;2023-02-21T05:16:33;4.90;99.90
37408;DHT22;24866;50.248;8.252;2023-02-21T05:19:03;4.30;99.90
37408;DHT22;24866;50.248;8.252;2023-02-21T05:21:34;4.10;99.90
37408;DHT22;24866;50.248;8.252;2023-02-21T05:24:07;4.20;99.90
37408;DHT22;24866;50.248;8.252;2023-02-21T05:26:37;4.30;99.90
37408;DHT22;24866;50.248;8.252;2023-02-21T05:29:07;4.30;99.90
37408;DHT22;24866;50.248;8.252;2023-02-21T05:31:37;4.40;99.90
37408;DHT22;24866;50.248;8.252;2023-02-21T05:34:07;4.40;99.90
37408;DHT22;24866;50.248;8.252;2023-02-21T05:36:37;4.40;99.90
37408;DHT22;24866;50.248;8.252;2023-02-21T05:39:09;4.30;99.90
37408;DHT22;24866;50.248;8.252;2023-02-21T05:41:45;4.40;99.90
37408;DHT22;24866;50.248;8.252;2023-02-21T05:44:16;4.50;99.90
37408;DHT22;24866;50.248;8.252;2023-02-21T05:46:46;4.60;99.90
37408;DHT22;24866;50.248;8.252;2023-02-21T05:49:17;4.60;99.90
37408;DHT22;24866;50.248;8.252;2023-02-21T05:51:46;4.70;99.90
37408;DHT22;24866;50.248;8.252;2023-02-21T05:54:20;4.70;99.90
37408;DHT22;24866;50.248;8.252;2023-02-21T05:56:51;4.80;99.90
37408;DHT22;24866;50.248;8.252;2023-02-21T05:59:21;4.80;99.90
37408;DHT22;24866;50.248;8.252;2023-02-21T06:01:53;4.50;99.90
37408;DHT22;24866;50.248;8.252;2023-02-21T06:04:23;4.50;99.90
37408;DHT22;24866;50.248;8.252;2023-02-21T06:06:54;4.30;99.90
37408;DHT22;24866;50.248;8.252;2023-02-21T06:09:27;4.20;99.90
37408;DHT22;24866;50.248;8.252;2023-02-21T06:11:58;4.30;99.90
37408;DHT22;24866;50.248;8.252;2023-02-21T06:14:28;4.40;99.90
37408;DHT22;24866;50.248;8.252;2023-02-21T06:16:59;4.50;99.90
37408;DHT22;24866;50.248;8.252;2023-02-21T06:19:30;4.70;99.90
37408;DHT22;24866;50.248;8.252;2023-02-21T06:22:00;4.70;99.90
37408;DHT22;24866;50.248;8.252;2023-02-21T06:24:31;4.70;99.90
37408;DHT22;24866;50.248;8.252;2023-02-21T06:27:01;4.60;99.90
37408;DHT22;24866;50.248;8.252;2023-02-21T06:29:31;4.60;99.90
37408;DHT22;24866;50.248;8.252;2023-02-21T06:32:01;4.70;99.90
37408;DHT22;24866;50.248;8.252;2023-02-21T06:34:32;4.70;99.90
37408;DHT22;24866;50.248;8.252;2023-02-21T06:37:02;4.80;99.90
37408;DHT22;24866;50.248;8.252;2023-02-21T06:39:34;4.80;99.90
37408;DHT22;24866;50.248;8.252;2023-02-21T06:42:04;4.80;99.90
37408;DHT22;24866;50.248;8.252;2023-02-21T06:44:34;4.80;99.90
37408;DHT22;24866;50.248;8.252;2023-02-21T06:47:04;5.00;99.90
37408;DHT22;24866;50.248;8.252;2023-02-21T06:49:34;5.10;99.90
37408;DHT22;24866;50.248;8.252;2023-02-21T06:52:05;5.10;99.90
37408;DHT22;24866;50.248;8.252;2023-02-21T06:54:36;5.10;99.90
37408;DHT22;24866;50.248;8.252;2023-02-21T06:57:06;5.10;99.90
37408;DHT22;24866;50.248;8.252;2023-02-21T06:59:36;5.10;99.90
37408;DHT22;24866;50.248;8.252;2023-02-21T07:02:08;5.10;99.90
37408;DHT22;24866;50.248;8.252;2023-02-21T07:04:43;5.10;99.90
37408;DHT22;24866;50.248;8.252;2023-02-21T07:07:14;5.30;99.90
37408;DHT22;24866;50.248;8.252;2023-02-21T07:09:46;5.30;99.90
37408;DHT22;24866;50.248;8.252;2023-02-21T07:12:16;5.30;99.90
37408;DHT22;24866;50.248;8.252;2023-02-21T07:14:46;5.40;99.90
37408;DHT22;24866;50.248;8.252;2023-02-21T07:17:16;5.50;99.90
37408;DHT22;24866;50.248;8.252;2023-02-21T07:19:46;5.40;99.90
37408;DHT22;24866;50.248;8.252;2023-02-21T07:22:17;5.50;99.90
37408;DHT22;24866;50.248;8.252;2023-02-21T07:24:55;5.40;99.90
37408;DHT22;24866;50.248;8.252;2023-02-21T07:27:25;5.50;99.90
37408;DHT22;24866;50.248;8.252;2023-02-21T07:29:55;5.30;99.90
37408;DHT22;24866;50.248;8.252;2023-02-21T07:32:26;5.30;99.90
37408;DHT22;24866;50.248;8.252;2023-02-21T07:34:56;5.40;99.90
37408;DHT22;24866;50.248;8.252;2023-02-21T07:37:26;5.40;99.90
37408;DHT22;24866;50.248;8.252;2023-02-21T07:39:58;5.50;99.90
37408;DHT22;24866;50.248;8.252;2023-02-21T07:42:29;5.70;99.90
37408;DHT22;24866;50.248;8.252;2023-02-21T07:44:59;5.80;99.90
37408;DHT22;24866;50.248;8.252;2023-02-21T07:47:29;6.10;99.90
37408;DHT22;24866;50.248;8.252;2023-02-21T07:49:59;6.30;99.90
37408;DHT22;24866;50.248;8.252;2023-02-21T07:52:29;6.60;99.90
37408;DHT22;24866;50.248;8.252;2023-02-21T07:55:01;6.90;99.90
37408;DHT22;24866;50.248;8.252;2023-02-21T07:57:31;7.10;99.90
37408;DHT22;24866;50.248;8.252;2023-02-21T08:00:01;7.30;99.90
37408;DHT22;24866;50.248;8.252;2023-02-21T08:02:32;7.30;99.90
37408;DHT22;24866;50.248;8.252;2023-02-21T08:05:04;7.20;99.90
37408;DHT22;24866;50.248;8.252;2023-02-21T08:07:34;7.40;99.90
37408;DHT22;24866;50.248;8.252;2023-02-21T08:10:07;7.50;99.90
37408;DHT22;24866;50.248;8.252;2023-02-21T08:12:38;7.90;99.90
37408;DHT22;24866;50.248;8.252;2023-02-21T08:15:09;8.20;99.90
37408;DHT22;24866;50.248;8.252;2023-02-21T08:17:39;8.30;99.90
37408;DHT22;24866;50.248;8.252;2023-02-21T08:20:10;8.40;99.90
37408;DHT22;24866;50.248;8.252;2023-02-21T08:22:40;8.60;99.90
37408;DHT22;24866;50.248;8.252;2023-02-21T08:25:12;8.90;99.90
37408;DHT22;24866;50.248;8.252;2023-02-21T08:27:42;9.10;99.90
37408;DHT22;24866;50.248;8.252;2023-02-21T08:30:19;9.30;99.90
37408;DHT22;24866;50.248;8.252;2023-02-21T08:32:50;9.40;99.90
37408;DHT22;24866;50.248;8.252;2023-02-21T08:35:20;9.50;99.90
37408;DHT22;24866;50.248;8.252;2023-02-21T08:37:51;9.80;99.90
37408;DHT22;24866;50.248;8.252;2023-02-21T08:40:25;9.90;99.90
37408;DHT22;24866;50.248;8.252;2023-02-21T08:42:56;10.10;99.90
37408;DHT22;24866;50.248;8.252;2023-02-21T08:45:27;10.10;99.90
37408;DHT22;24866;50.248;8.252;2023-02-21T08:47:58;10.20;99.90
37408;DHT22;24866;50.248;8.252;2023-02-21T08:50:28;10.30;99.90
37408;DHT22;24866;50.248;8.252;2023-02-21T08:52:58;10.50;99.90
37408;DHT22;24866;50.248;8.252;2023-02-21T08:55:30;10.70;99.90
37408;DHT22;24866;50.248;8.252;2023-02-21T08:58:00;10.90;99.90
37408;DHT22;24866;50.248;8.252;2023-02-21T09:00:30;10.90;99.90
37408;DHT22;24866;50.248;8.252;2023-02-21T09:03:00;11.10;99.90
37408;DHT22;24866;50.248;8.252;2023-02-21T09:05:31;11.50;99.90
37408;DHT22;24866;50.248;8.252;2023-02-21T09:08:01;11.70;99.90
37408;DHT22;24866;50.248;8.252;2023-02-21T09:10:34;11.70;99.90
37408;DHT22;24866;50.248;8.252;2023-02-21T09:13:06;11.80;99.90
37408;DHT22;24866;50.248;8.252;2023-02-21T09:15:36;11.80;99.90
37408;DHT22;24866;50.248;8.252;2023-02-21T09:18:06;11.80;99.90
37408;DHT22;24866;50.248;8.252;2023-02-21T09:20:36;11.90;99.90
37408;DHT22;24866;50.248;8.252;2023-02-21T09:23:09;12.20;99.90
37408;DHT22;24866;50.248;8.252;2023-02-21T09:25:41;12.40;99.90
37408;DHT22;24866;50.248;8.252;2023-02-21T09:28:11;12.60;99.90
37408;DHT22;24866;50.248;8.252;2023-02-21T09:30:41;12.60;99.90
37408;DHT22;24866;50.248;8.252;2023-02-21T09:33:11;12.40;99.90
37408;DHT22;24866;50.248;8.252;2023-02-21T09:35:41;12.50;99.90
37408;DHT22;24866;50.248;8.252;2023-02-21T09:38:11;12.10;99.90
37408;DHT22;24866;50.248;8.252;2023-02-21T09:40:45;12.30;99.90
37408;DHT22;24866;50.248;8.252;2023-02-21T09:43:22;12.30;99.90
37408;DHT22;24866;50.248;8.252;2023-02-21T09:45:57;12.70;99.90
37408;DHT22;24866;50.248;8.252;2023-02-21T09:48:28;12.40;99.90
37408;DHT22;24866;50.248;8.252;2023-02-21T09:51:00;12.90;99.90
37408;DHT22;24866;50.248;8.252;2023-02-21T09:53:33;13.20;99.90
37408;DHT22;24866;50.248;8.252;2023-02-21T09:56:11;13.40;99.90
37408;DHT22;24866;50.248;8.252;2023-02-21T09:58:43;13.30;99.90
37408;DHT22;24866;50.248;8.252;2023-02-21T10:01:21;13.50;99.90
37408;DHT22;24866;50.248;8.252;2023-02-21T10:04:01;12.70;99.90
37408;DHT22;24866;50.248;8.252;2023-02-21T10:06:41;13.10;99.90
37408;DHT22;24866;50.248;8.252;2023-02-21T10:09:24;13.30;99.90
37408;DHT22;24866;50.248;8.252;2023-02-21T10:12:07;13.70;99.90
37408;DHT22;24866;50.248;8.252;2023-02-21T10:14:42;13.90;99.90
37408;DHT22;24866;50.248;8.252;2023-02-21T10:17:21;14.10;99.90
37408;DHT22;24866;50.248;8.252;2023-02-21T10:19:54;14.40;99.90
37408;DHT22;24866;50.248;8.252;2023-02-21T10:22:30;14.20;99.90
37408;DHT22;24866;50.248;8.252;2023-02-21T10:25:17;14.00;99.90
37408;DHT22;24866;50.248;8.252;2023-02-21T10:27:52;14.10;99.90
37408;DHT22;24866;50.248;8.252;2023-02-21T10:30:28;14.00;99.90
37408;DHT22;24866;50.248;8.252;2023-02-21T10:32:59;14.40;99.90
37408;DHT22;24866;50.248;8.252;2023-02-21T10:35:35;14.20;99.90
37408;DHT22;24866;50.248;8.252;2023-02-21T10:38:07;14.20;99.90
37408;DHT22;24866;50.248;8.252;2023-02-21T10:40:41;14.40;99.90
37408;DHT22;24866;50.248;8.252;2023-02-21T10:43:16;14.70;99.90
37408;DHT22;24866;50.248;8.252;2023-02-21T10:45:51;14.60;99.90
37408;DHT22;24866;50.248;8.252;2023-02-21T10:48:26;14.60;99.90
37408;DHT22;24866;50.248;8.252;2023-02-21T10:51:06;14.60;99.90
37408;DHT22;24866;50.248;8.252;2023-02-21T10:53:38;14.80;99.90
37408;DHT22;24866;50.248;8.252;2023-02-21T10:56:19;15.00;99.90
37408;DHT22;24866;50.248;8.252;2023-02-21T10:58:52;15.20;99.90
37408;DHT22;24866;50.248;8.252;2023-02-21T11:01:32;15.40;99.90
37408;DHT22;24866;50.248;8.252;2023-02-21T11:04:05;15.40;99.90
37408;DHT22;24866;50.248;8.252;2023-02-21T11:06:37;15.40;99.90
37408;DHT22;24866;50.248;8.252;2023-02-21T11:09:30;15.50;99.90
37408;DHT22;24866;50.248;8.252;2023-02-21T11:12:04;15.70;99.90
37408;DHT22;24866;50.248;8.252;2023-02-21T11:14:36;15.30;99.90
37408;DHT22;24866;50.248;8.252;2023-02-21T11:17:12;15.40;99.90
37408;DHT22;24866;50.248;8.252;2023-02-21T11:19:49;15.50;99.90
37408;DHT22;24866;50.248;8.252;2023-02-21T11:22:21;15.90;99.90
37408;DHT22;24866;50.248;8.252;2023-02-21T11:24:59;16.10;99.90
37408;DHT22;24866;50.248;8.252;2023-02-21T11:27:34;16.00;99.90
37408;DHT22;24866;50.248;8.252;2023-02-21T11:30:13;15.80;99.90
37408;DHT22;24866;50.248;8.252;2023-02-21T11:32:48;16.00;99.90
37408;DHT22;24866;50.248;8.252;2023-02-21T11:35:24;16.00;99.90
37408;DHT22;24866;50.248;8.252;2023-02-21T11:37:56;16.00;99.90
37408;DHT22;24866;50.248;8.252;2023-02-21T11:40:30;16.50;99.90
37408;DHT22;24866;50.248;8.252;2023-02-21T11:43:19;16.60;99.90
37408;DHT22;24866;50.248;8.252;2023-02-21T11:46:11;16.30;99.90
37408;DHT22;24866;50.248;8.252;2023-02-21T11:48:50;16.40;99.90
37408;DHT22;24866;50.248;8.252;2023-02-21T11:51:33;16.50;99.90
37408;DHT22;24866;50.248;8.252;2023-02-21T11:54:06;16.70;99.90
37408;DHT22;24866;50.248;8.252;2023-02-21T11:56:51;16.60;99.90
37408;DHT22;24866;50.248;8.252;2023-02-21T11:59:37;16.70;99.90
37408;DHT22;24866;50.248;8.252;2023-02-21T12:02:40;16.90;99.90
37408;DHT22;24866;50.248;8.252;2023-02-21T12:05:30;17.10;99.90
37408;DHT22;24866;50.248;8.252;2023-02-21T12:08:17;17.20;99.90
37408;DHT22;24866;50.248;8.252;2023-02-21T12:10:56;17.00;99.90
37408;DHT22;24866;50.248;8.252;2023-02-21T12:13:36;17.00;99.90
37408;DHT22;24866;50.248;8.252;2023-02-21T12:16:11;17.30;99.90
37408;DHT22;24866;50.248;8.252;2023-02-21T12:19:03;17.50;99.90
37408;DHT22;24866;50.248;8.252;2023-02-21T12:24:49;17.90;99.90
37408;DHT22;24866;50.248;8.252;2023-02-21T12:27:32;18.10;99.90
37408;DHT22;24866;50.248;8.252;2023-02-21T12:30:26;17.50;99.90
37408;DHT22;24866;50.248;8.252;2023-02-21T12:33:15;17.10;99.90
37408;DHT22;24866;50.248;8.252;2023-02-21T12:36:05;16.70;99.90
37408;DHT22;24866;50.248;8.252;2023-02-21T12:38:52;17.50;99.90
37408;DHT22;24866;50.248;8.252;2023-02-21T12:41:43;17.10;99.90
37408;DHT22;24866;50.248;8.252;2023-02-21T12:44:18;16.90;99.90
37408;DHT22;24866;50.248;8.252;2023-02-21T12:46:53;17.70;99.90
37408;DHT22;24866;50.248;8.252;2023-02-21T12:49:28;17.90;99.90
37408;DHT22;24866;50.248;8.252;2023-02-21T12:52:07;18.40;99.90
37408;DHT22;24866;50.248;8.252;2023-02-21T12:54:46;18.50;99.90
37408;DHT22;24866;50.248;8.252;2023-02-21T12:57:20;18.50;99.90
37408;DHT22;24866;50.248;8.252;2023-02-21T13:00:02;18.60;99.90
37408;DHT22;24866;50.248;8.252;2023-02-21T13:02:42;17.80;99.90
37408;DHT22;24866;50.248;8.252;2023-02-21T13:05:17;17.80;99.90
37408;DHT22;24866;50.248;8.252;2023-02-21T13:07:53;17.20;99.90
37408;DHT22;24866;50.248;8.252;2023-02-21T13:10:29;17.70;99.90
37408;DHT22;24866;50.248;8.252;2023-02-21T13:13:04;17.60;99.90
37408;DHT22;24866;50.248;8.252;2023-02-21T13:15:39;16.90;99.90
37408;DHT22;24866;50.248;8.252;2023-02-21T13:18:26;16.80;99.90
37408;DHT22;24866;50.248;8.252;2023-02-21T13:21:03;16.40;99.90
37408;DHT22;24866;50.248;8.252;2023-02-21T13:27:29;16.10;99.90
37408;DHT22;24866;50.248;8.252;2023-02-21T13:30:10;16.50;99.90
37408;DHT22;24866;50.248;8.252;2023-02-21T13:32:50;16.60;99.90
37408;DHT22;24866;50.248;8.252;2023-02-21T13:35:30;16.90;99.90
37408;DHT22;24866;50.248;8.252;2023-02-21T13:38:03;16.50;99.90
37408;DHT22;24866;50.248;8.252;2023-02-21T13:40:36;16.60;99.90
37408;DHT22;24866;50.248;8.252;2023-02-21T13:43:11;16.10;99.90
37408;DHT22;24866;50.248;8.252;2023-02-21T13:45:42;16.30;99.90
37408;DHT22;24866;50.248;8.252;2023-02-21T13:48:31;15.90;99.90
37408;DHT22;24866;50.248;8.252;2023-02-21T13:51:01;16.70;99.90
37408;DHT22;24866;50.248;8.252;2023-02-21T13:53:32;17.00;99.90
37408;DHT22;24866;50.248;8.252;2023-02-21T13:56:40;16.70;99.90
37408;DHT22;24866;50.248;8.252;2023-02-21T13:59:32;17.10;99.90
37408;DHT22;24866;50.248;8.252;2023-02-21T14:02:21;17.50;99.90
37408;DHT22;24866;50.248;8.252;2023-02-21T14:05:01;17.20;99.90
37408;DHT22;24866;50.248;8.252;2023-02-21T14:07:58;16.40;1.00
37408;DHT22;24866;50.248;8.252;2023-02-21T14:10:42;16.50;1.00
37408;DHT22;24866;50.248;8.252;2023-02-21T14:13:31;16.70;99.90
37408;DHT22;24866;50.248;8.252;2023-02-21T14:16:16;16.40;1.00
37408;DHT22;24866;50.248;8.252;2023-02-21T14:18:51;16.20;1.00
37408;DHT22;24866;50.248;8.252;2023-02-21T14:21:25;16.00;99.90
37408;DHT22;24866;50.248;8.252;2023-02-21T14:23:58;16.40;1.00
37408;DHT22;24866;50.248;8.252;2023-02-21T14:26:50;16.30;99.90
37408;DHT22;24866;50.248;8.252;2023-02-21T14:29:31;15.90;8.20
37408;DHT22;24866;50.248;8.252;2023-02-21T14:32:26;16.10;1.00
37408;DHT22;24866;50.248;8.252;2023-02-21T14:35:01;16.50;99.90
37408;DHT22;24866;50.248;8.252;2023-02-21T14:37:44;16.50;99.90
37408;DHT22;24866;50.248;8.252;2023-02-21T14:40:28;16.30;1.00
37408;DHT22;24866;50.248;8.252;2023-02-21T14:46:04;16.00;1.00
37408;DHT22;24866;50.248;8.252;2023-02-21T14:49:07;16.10;1.00
37408;DHT22;24866;50.248;8.252;2023-02-21T14:52:01;16.10;99.90
37408;DHT22;24866;50.248;8.252;2023-02-21T15:00:52;15.60;91.00
37408;DHT22;24866;50.248;8.252;2023-02-21T15:03:30;15.70;49.30
37408;DHT22;24866;50.248;8.252;2023-02-21T15:06:06;15.50;1.00
37408;DHT22;24866;50.248;8.252;2023-02-21T15:08:41;15.30;1.00
37408;DHT22;24866;50.248;8.252;2023-02-21T15:11:24;15.50;1.00
37408;DHT22;24866;50.248;8.252;2023-02-21T15:14:15;15.50;1.00
37408;DHT22;24866;50.248;8.252;2023-02-21T15:16:53;15.30;1.00
37408;DHT22;24866;50.248;8.252;2023-02-21T15:19:27;15.40;1.00
37408;DHT22;24866;50.248;8.252;2023-02-21T15:22:16;15.50;1.00
37408;DHT22;24866;50.248;8.252;2023-02-21T15:25:18;15.20;1.00
37408;DHT22;24866;50.248;8.252;2023-02-21T15:27:55;15.00;1.00
37408;DHT22;24866;50.248;8.252;2023-02-21T15:30:29;15.20;1.00
37408;DHT22;24866;50.248;8.252;2023-02-21T15:33:05;15.40;1.00
37408;DHT22;24866;50.248;8.252;2023-02-21T15:35:38;15.40;1.00
37408;DHT22;24866;50.248;8.252;2023-02-21T15:38:15;15.20;99.90
37408;DHT22;24866;50.248;8.252;2023-02-21T15:40:46;15.10;99.90
37408;DHT22;24866;50.248;8.252;2023-02-21T15:43:28;15.10;99.90
37408;DHT22;24866;50.248;8.252;2023-02-21T15:46:01;15.10;99.90
37408;DHT22;24866;50.248;8.252;2023-02-21T15:48:33;15.00;99.90
37408;DHT22;24866;50.248;8.252;2023-02-21T15:51:06;14.90;99.90
37408;DHT22;24866;50.248;8.252;2023-02-21T15:53:39;14.80;99.90
37408;DHT22;24866;50.248;8.252;2023-02-21T15:56:22;14.60;99.90
37408;DHT22;24866;50.248;8.252;2023-02-21T15:59:10;14.50;99.90
37408;DHT22;24866;50.248;8.252;2023-02-21T16:01:41;14.60;99.90
37408;DHT22;24866;50.248;8.252;2023-02-21T16:04:17;14.60;83.50
37408;DHT22;24866;50.248;8.252;2023-02-21T16:06:51;14.40;20.90
37408;DHT22;24866;50.248;8.252;2023-02-21T16:09:26;14.50;43.50
37408;DHT22;24866;50.248;8.252;2023-02-21T16:12:04;14.30;1.00
37408;DHT22;24866;50.248;8.252;2023-02-21T16:14:38;14.40;1.00
37408;DHT22;24866;50.248;8.252;2023-02-21T16:17:25;14.20;1.00
37408;DHT22;24866;50.248;8.252;2023-02-21T16:19:57;14.10;1.00
37408;DHT22;24866;50.248;8.252;2023-02-21T16:22:32;13.90;1.00
37408;DHT22;24866;50.248;8.252;2023-02-21T16:25:14;13.80;1.00
37408;DHT22;24866;50.248;8.252;2023-02-21T16:27:47;13.60;1.00
37408;DHT22;24866;50.248;8.252;2023-02-21T16:30:20;13.40;1.00
37408;DHT22;24866;50.248;8.252;2023-02-21T16:32:52;13.30;1.00
37408;DHT22;24866;50.248;8.252;2023-02-21T16:35:23;13.20;1.00
37408;DHT22;24866;50.248;8.252;2023-02-21T16:37:55;13.20;1.00
37408;DHT22;24866;50.248;8.252;2023-02-21T16:40:28;13.20;1.00
37408;DHT22;24866;50.248;8.252;2023-02-21T16:42:59;13.10;1.00
37408;DHT22;24866;50.248;8.252;2023-02-21T16:45:30;13.00;1.00
37408;DHT22;24866;50.248;8.252;2023-02-21T16:48:02;12.90;1.00
37408;DHT22;24866;50.248;8.252;2023-02-21T16:50:34;12.90;1.00
37408;DHT22;24866;50.248;8.252;2023-02-21T16:53:05;12.90;1.00
37408;DHT22;24866;50.248;8.252;2023-02-21T16:55:41;12.80;1.00
37408;DHT22;24866;50.248;8.252;2023-02-21T16:58:18;12.70;1.00
37408;DHT22;24866;50.248;8.252;2023-02-21T17:00:52;12.70;1.00
37408;DHT22;24866;50.248;8.252;2023-02-21T17:03:22;13.00;26.80